Time;durP1;ratioP1;P1;durP2;ratioP2;P2;SDS_P1;SDS_P2;PMS_P1;PMS_P2;Temp;Humidity;BMP_temperature;BMP_pressure;BME280_temperature;BME280_humidity;BME280_pressure;Samples;Min_cycle;Max_cycle;Signal;HPM_P1;HPM_P2
2022/03/11 00:00:01;;;;;;;124.55;113.07;;;10.50;45.80;;;;;;4995854;28;20051;-75
2022/03/11 00:02:35;;;;;;;123.72;111.88;;;10.50;45.00;;;;;;4977825;28;20169;-75
2022/03/11 00:05:02;;;;;;;126.35;114.55;;;10.40;45.10;;;;;;4993086;28;20508;-75
2022/03/11 00:07:30;;;;;;;125.28;113.38;;;10.30;45.10;;;;;;4977649;28;20133;-75
2022/03/11 00:09:57;;;;;;;124.47;112.97;;;10.30;45.30;;;;;;4977859;28;20043;-75
2022/03/11 00:12:24;;;;;;;125.03;113.20;;;10.20;45.40;;;;;;4977857;28;20420;-75
2022/03/11 00:14:52;;;;;;;125.13;113.38;;;10.20;45.40;;;;;;4995423;28;20058;-75
2022/03/11 00:17:20;;;;;;;124.75;113.18;;;10.20;45.60;;;;;;4977647;28;20580;-75
2022/03/11 00:19:48;;;;;;;123.75;112.05;;;10.20;45.60;;;;;;4978186;28;20088;-75
2022/03/11 00:22:15;;;;;;;124.13;112.63;;;10.20;45.50;;;;;;4995503;28;20548;-75
2022/03/11 00:24:42;;;;;;;124.30;112.43;;;10.20;45.40;;;;;;4977637;28;20061;-75
2022/03/11 00:27:08;;;;;;;127.00;115.25;;;10.10;45.40;;;;;;4977455;28;20051;-75
2022/03/11 00:29:35;;;;;;;123.43;111.82;;;10.10;45.30;;;;;;4995029;28;20043;-75
2022/03/11 00:32:02;;;;;;;123.53;111.82;;;10.00;45.30;;;;;;4994039;28;20623;-75
2022/03/11 00:34:31;;;;;;;123.50;112.00;;;10.00;45.50;;;;;;4977677;28;20061;-75
2022/03/11 00:36:58;;;;;;;123.75;112.30;;;10.00;45.50;;;;;;4976964;28;20058;-75
2022/03/11 00:39:25;;;;;;;121.45;110.10;;;10.00;45.40;;;;;;4995282;28;20097;-75
2022/03/11 00:41:52;;;;;;;122.60;111.00;;;10.00;45.50;;;;;;4977136;28;20384;-75
2022/03/11 00:44:20;;;;;;;121.43;109.72;;;10.00;45.70;;;;;;4993693;28;20049;-75
2022/03/11 00:46:47;;;;;;;122.40;111.03;;;10.00;45.70;;;;;;4977740;28;20062;-75
2022/03/11 00:49:14;;;;;;;121.70;110.30;;;10.00;45.60;;;;;;4977180;28;20039;-75
2022/03/11 00:51:42;;;;;;;123.75;112.25;;;10.00;45.70;;;;;;4994948;28;20051;-75
2022/03/11 00:54:09;;;;;;;122.35;110.65;;;10.00;45.50;;;;;;4994037;28;20062;-74
2022/03/11 00:56:36;;;;;;;121.40;110.07;;;9.90;45.60;;;;;;4993559;28;20043;-75
2022/03/11 00:59:03;;;;;;;121.38;109.68;;;9.80;45.30;;;;;;4993221;28;20500;-75
2022/03/11 01:01:30;;;;;;;120.47;109.35;;;9.80;45.70;;;;;;4977166;28;20145;-75
2022/03/11 01:03:57;;;;;;;121.22;109.93;;;9.70;45.50;;;;;;4993376;28;20457;-75
2022/03/11 01:06:24;;;;;;;121.32;109.93;;;9.60;45.40;;;;;;4993413;28;20055;-75
2022/03/11 01:08:52;;;;;;;120.35;108.85;;;9.60;45.70;;;;;;4992929;28;20051;-75
2022/03/11 01:11:19;;;;;;;120.75;109.45;;;9.50;45.60;;;;;;4994990;28;20158;-75
2022/03/11 01:13:46;;;;;;;120.80;109.20;;;9.40;45.60;;;;;;4994585;28;20065;-74
2022/03/11 01:16:13;;;;;;;118.97;107.68;;;9.20;46.00;;;;;;4994888;28;20142;-75
2022/03/11 01:18:39;;;;;;;119.80;108.57;;;9.10;45.90;;;;;;4994053;28;20047;-74
2022/03/11 01:21:06;;;;;;;119.15;107.65;;;9.00;46.20;;;;;;4993211;28;20093;-74
2022/03/11 01:23:36;;;;;;;119.38;108.07;;;8.90;46.10;;;;;;4994213;28;20062;-75
2022/03/11 01:26:04;;;;;;;118.03;106.78;;;8.80;46.30;;;;;;4976925;28;20050;-75
2022/03/11 01:28:31;;;;;;;119.47;108.07;;;8.80;46.40;;;;;;4994134;28;20054;-75
2022/03/11 01:30:58;;;;;;;118.05;106.88;;;8.70;46.50;;;;;;4976952;28;20050;-74
2022/03/11 01:33:25;;;;;;;119.30;107.90;;;8.70;46.80;;;;;;4976841;28;20507;-74
2022/03/11 01:35:52;;;;;;;118.53;107.18;;;8.70;46.80;;;;;;4993113;28;20058;-75
2022/03/11 01:38:19;;;;;;;118.25;106.80;;;8.60;46.80;;;;;;4976114;28;20082;-74
2022/03/11 01:40:46;;;;;;;117.25;106.20;;;8.60;47.00;;;;;;4992825;28;20576;-75
2022/03/11 01:43:17;;;;;;;117.22;106.10;;;8.50;47.00;;;;;;4994636;28;20070;-75
2022/03/11 01:45:44;;;;;;;120.55;109.07;;;8.40;47.20;;;;;;4976660;28;20057;-74
2022/03/11 01:48:11;;;;;;;118.57;107.20;;;8.40;47.50;;;;;;4992578;28;20059;-75
2022/03/11 01:50:40;;;;;;;119.03;107.82;;;8.40;47.80;;;;;;4976335;28;20531;-74
2022/03/11 01:53:08;;;;;;;117.45;106.20;;;8.40;47.70;;;;;;4994025;28;20066;-74
2022/03/11 01:55:36;;;;;;;119.25;107.88;;;8.40;48.00;;;;;;4976345;28;20077;-74
2022/03/11 01:58:03;;;;;;;117.30;106.03;;;8.40;47.70;;;;;;4976347;28;20047;-74
2022/03/11 02:00:34;;;;;;;117.97;106.70;;;8.40;47.70;;;;;;4976741;28;20072;-75
2022/03/11 02:03:01;;;;;;;118.93;107.57;;;8.40;47.60;;;;;;4993620;28;20140;-74
2022/03/11 02:05:28;;;;;;;117.75;106.43;;;8.30;47.60;;;;;;4992465;28;20134;-75
2022/03/11 02:07:58;;;;;;;117.22;105.88;;;8.30;47.80;;;;;;4993465;28;20161;-75
2022/03/11 02:10:26;;;;;;;118.78;106.97;;;8.30;48.00;;;;;;4993595;28;20122;-74
2022/03/11 02:12:53;;;;;;;118.43;107.03;;;8.30;48.00;;;;;;4992010;28;20047;-75
2022/03/11 02:15:20;;;;;;;121.10;109.18;;;8.40;48.00;;;;;;4975519;28;20061;-74
2022/03/11 02:17:48;;;;;;;117.95;106.55;;;8.40;48.40;;;;;;4991359;28;20126;-75
2022/03/11 02:20:15;;;;;;;119.28;107.72;;;8.40;48.10;;;;;;4976254;28;20054;-74
2022/03/11 02:22:44;;;;;;;118.93;107.57;;;8.40;48.00;;;;;;4975904;28;20051;-74
2022/03/11 02:25:12;;;;;;;116.88;105.68;;;8.40;48.30;;;;;;4992100;28;20047;-74
2022/03/11 02:27:42;;;;;;;119.03;107.53;;;8.50;48.20;;;;;;4991973;28;20054;-74
2022/03/11 02:30:14;;;;;;;120.28;108.65;;;8.40;48.30;;;;;;4993480;28;20058;-74
2022/03/11 02:32:42;;;;;;;119.38;107.82;;;8.40;48.40;;;;;;4976070;28;20503;-75
2022/03/11 02:35:10;;;;;;;119.55;107.88;;;8.30;48.30;;;;;;4992273;28;20054;-74
2022/03/11 02:37:37;;;;;;;119.18;107.75;;;8.20;48.40;;;;;;4992811;28;20094;-74
2022/03/11 02:40:05;;;;;;;118.05;106.68;;;8.20;48.40;;;;;;4993357;28;20093;-74
2022/03/11 02:42:33;;;;;;;118.63;107.03;;;8.10;48.40;;;;;;4975664;28;20470;-74
2022/03/11 02:45:00;;;;;;;119.72;108.20;;;8.00;48.80;;;;;;4992146;28;20490;-74
2022/03/11 02:47:27;;;;;;;119.57;108.03;;;8.00;48.90;;;;;;4975336;28;20548;-74
2022/03/11 02:49:55;;;;;;;119.90;108.30;;;8.00;49.30;;;;;;4993517;28;20499;-75
2022/03/11 02:52:25;;;;;;;119.28;107.80;;;8.10;49.60;;;;;;4976176;28;20130;-74
2022/03/11 02:54:56;;;;;;;120.45;108.85;;;8.10;49.10;;;;;;4963306;28;20158;-74
2022/03/11 02:57:23;;;;;;;120.85;109.15;;;8.10;49.10;;;;;;4972011;28;20043;-75
2022/03/11 02:59:51;;;;;;;119.85;108.25;;;8.10;49.60;;;;;;4956197;28;20058;-75
2022/03/11 03:02:19;;;;;;;120.25;108.65;;;8.10;49.10;;;;;;4956212;28;20114;-74
2022/03/11 03:04:46;;;;;;;119.63;108.13;;;8.10;49.10;;;;;;4973662;28;20489;-74
2022/03/11 03:07:13;;;;;;;122.82;110.72;;;8.10;49.30;;;;;;4955864;28;20118;-74
2022/03/11 03:09:41;;;;;;;121.50;109.55;;;8.00;49.50;;;;;;4956023;28;20082;-75
2022/03/11 03:12:10;;;;;;;121.15;109.45;;;8.00;49.30;;;;;;4972188;28;20059;-75
2022/03/11 03:14:37;;;;;;;120.18;108.47;;;8.00;49.80;;;;;;4956286;28;20134;-74
2022/03/11 03:17:06;;;;;;;125.68;113.28;;;7.90;49.60;;;;;;4956662;28;20529;-74
2022/03/11 03:19:35;;;;;;;121.53;109.53;;;7.80;49.70;;;;;;4977147;28;20051;-74
2022/03/11 03:22:03;;;;;;;121.35;109.43;;;7.70;49.90;;;;;;4975738;28;20051;-74
2022/03/11 03:24:30;;;;;;;121.38;109.38;;;7.80;49.90;;;;;;4976986;28;20102;-74
2022/03/11 03:26:57;;;;;;;121.57;109.60;;;7.80;50.10;;;;;;4958776;28;20079;-74
2022/03/11 03:29:24;;;;;;;122.25;110.15;;;7.80;50.30;;;;;;4959406;28;20134;-74
2022/03/11 03:31:57;;;;;;;122.07;110.00;;;7.80;50.30;;;;;;4959249;28;20411;-74
2022/03/11 03:34:27;;;;;;;121.43;109.22;;;7.90;50.40;;;;;;4975332;28;20051;-74
2022/03/11 03:36:54;;;;;;;123.07;111.07;;;7.90;50.20;;;;;;4958631;28;20050;-74
2022/03/11 03:39:21;;;;;;;120.53;108.65;;;7.90;50.20;;;;;;4976488;28;20055;-74
2022/03/11 03:41:53;;;;;;;121.18;109.28;;;7.90;50.30;;;;;;4959535;28;20662;-74
2022/03/11 03:44:20;;;;;;;122.13;110.22;;;7.90;50.20;;;;;;4975765;28;20059;-74
2022/03/11 03:46:47;;;;;;;121.82;109.88;;;7.70;50.10;;;;;;4959075;28;20047;-74
2022/03/11 03:49:14;;;;;;;121.65;109.70;;;7.70;50.20;;;;;;4976125;28;20062;-74
2022/03/11 03:51:43;;;;;;;122.43;110.25;;;7.70;50.70;;;;;;4976167;28;20055;-74
2022/03/11 03:54:10;;;;;;;124.47;112.40;;;7.70;50.60;;;;;;4964946;28;20043;-74
2022/03/11 03:56:38;;;;;;;121.63;109.63;;;7.70;50.70;;;;;;4994404;28;20042;-74
2022/03/11 03:59:05;;;;;;;120.85;108.97;;;7.70;50.90;;;;;;4995675;28;20133;-74
2022/03/11 04:01:34;;;;;;;121.22;109.32;;;7.70;50.80;;;;;;4995605;28;20501;-74
2022/03/11 04:04:01;;;;;;;124.13;111.90;;;7.70;50.80;;;;;;4978265;28;20138;-75
2022/03/11 04:06:28;;;;;;;123.78;111.63;;;7.70;50.60;;;;;;4996064;28;20517;-75
2022/03/11 04:08:57;;;;;;;123.05;110.78;;;7.70;50.70;;;;;;4977769;28;20507;-75
2022/03/11 04:11:25;;;;;;;124.22;111.88;;;7.60;50.70;;;;;;4994336;28;20055;-74
2022/03/11 04:13:52;;;;;;;123.57;111.50;;;7.60;50.80;;;;;;4995940;28;20055;-74
2022/03/11 04:16:19;;;;;;;124.32;112.00;;;7.60;50.80;;;;;;4995539;28;20101;-74
2022/03/11 04:18:46;;;;;;;124.93;112.03;;;7.60;51.20;;;;;;4977563;28;20137;-74
2022/03/11 04:21:15;;;;;;;123.90;111.70;;;7.50;50.80;;;;;;4977933;28;20046;-75
2022/03/11 04:23:42;;;;;;;123.40;111.20;;;7.50;50.90;;;;;;4993924;28;20062;-74
2022/03/11 04:26:11;;;;;;;124.85;112.25;;;7.50;51.00;;;;;;4994088;28;20045;-74
2022/03/11 04:28:38;;;;;;;124.97;112.53;;;7.40;50.90;;;;;;4993466;28;20055;-74
2022/03/11 04:31:07;;;;;;;124.30;112.00;;;7.40;51.20;;;;;;4993757;28;20046;-74
2022/03/11 04:33:34;;;;;;;125.22;112.85;;;7.30;51.10;;;;;;4995631;28;20062;-74
2022/03/11 04:36:02;;;;;;;124.43;112.10;;;7.20;51.30;;;;;;4993754;28;20567;-74
2022/03/11 04:38:29;;;;;;;122.93;110.93;;;7.10;51.50;;;;;;4992602;28;20517;-74
2022/03/11 04:40:56;;;;;;;124.68;112.40;;;7.00;51.70;;;;;;4993752;28;20047;-74
2022/03/11 04:43:24;;;;;;;125.05;112.28;;;7.00;52.10;;;;;;4993865;28;20081;-75
2022/03/11 04:45:51;;;;;;;125.57;113.05;;;6.90;52.10;;;;;;4995004;28;20198;-74
2022/03/11 04:48:18;;;;;;;125.97;113.50;;;6.80;52.20;;;;;;4994694;28;20078;-74
2022/03/11 04:50:45;;;;;;;124.63;112.25;;;6.80;52.60;;;;;;4977569;28;20043;-74
2022/03/11 04:53:12;;;;;;;125.00;112.50;;;6.80;52.90;;;;;;4993657;28;20133;-74
2022/03/11 04:55:39;;;;;;;125.65;112.97;;;6.80;52.90;;;;;;5008876;28;20643;-74
2022/03/11 04:58:06;;;;;;;124.60;111.97;;;6.80;53.30;;;;;;4977339;28;20076;-74
2022/03/11 05:00:34;;;;;;;126.00;113.32;;;6.80;53.00;;;;;;4977414;28;20133;-74
2022/03/11 05:03:01;;;;;;;127.13;114.18;;;6.80;53.00;;;;;;4977400;28;20576;-74
2022/03/11 05:05:29;;;;;;;124.70;112.05;;;6.80;53.60;;;;;;4995078;28;20655;-74
2022/03/11 05:07:56;;;;;;;126.57;113.78;;;6.80;53.30;;;;;;4977254;28;20100;-74
2022/03/11 05:10:23;;;;;;;126.40;113.63;;;6.80;53.10;;;;;;4993498;28;20054;-74
2022/03/11 05:12:50;;;;;;;126.55;113.78;;;6.80;53.20;;;;;;4994526;28;20511;-74
2022/03/11 05:15:19;;;;;;;128.30;115.22;;;6.60;53.10;;;;;;4994863;28;20082;-75
2022/03/11 05:17:48;;;;;;;125.57;113.05;;;6.50;53.50;;;;;;4976796;28;20082;-74
2022/03/11 05:20:15;;;;;;;126.47;113.50;;;6.50;53.70;;;;;;4977031;28;20508;-75
2022/03/11 05:22:42;;;;;;;128.82;116.03;;;6.60;54.10;;;;;;4976914;28;20477;-74
2022/03/11 05:25:10;;;;;;;126.30;113.18;;;6.60;54.00;;;;;;4976476;28;20050;-74
2022/03/11 05:27:37;;;;;;;127.28;114.40;;;6.70;54.10;;;;;;4976413;28;20051;-75
2022/03/11 05:30:07;;;;;;;129.32;116.68;;;6.70;54.10;;;;;;4976584;28;20046;-74
2022/03/11 05:32:34;;;;;;;126.32;113.75;;;6.70;54.10;;;;;;4994211;28;20051;-74
2022/03/11 05:35:02;;;;;;;126.55;113.88;;;6.60;53.90;;;;;;4976634;28;20685;-74
2022/03/11 05:37:29;;;;;;;126.97;114.28;;;6.50;53.70;;;;;;4976342;28;20491;-74
2022/03/11 05:39:56;;;;;;;;;;;6.50;54.30;;;;;;4994235;28;20364;-75
2022/03/11 05:42:23;;;;;;;129.07;115.78;;;6.60;55.40;;;;;;4994432;28;19926;-74
2022/03/11 05:44:51;;;;;;;127.78;114.82;;;6.50;54.20;;;;;;4994209;28;20138;-74
2022/03/11 05:47:18;;;;;;;127.78;115.05;;;6.60;54.50;;;;;;4976418;28;20129;-74
2022/03/11 05:49:44;;;;;;;127.43;114.63;;;6.60;54.40;;;;;;4994380;28;20432;-74
2022/03/11 05:52:12;;;;;;;;;;;6.60;54.60;;;;;;4994499;28;20092;-74
2022/03/11 05:54:39;;;;;;;131.40;117.72;;;6.70;56.00;;;;;;4966611;28;20918;-74
2022/03/11 05:57:06;;;;;;;131.88;118.72;;;6.70;54.50;;;;;;4974299;28;20059;-74
2022/03/11 05:59:34;;;;;;;130.50;117.47;;;6.60;54.00;;;;;;4956916;28;20053;-74
2022/03/11 06:02:01;;;;;;;128.32;115.45;;;6.50;54.10;;;;;;4974127;28;20082;-74
2022/03/11 06:04:29;;;;;;;129.75;116.65;;;6.50;54.70;;;;;;4957508;28;20058;-75
2022/03/11 06:06:56;;;;;;;130.55;117.75;;;6.40;54.60;;;;;;4957237;28;20051;-74
2022/03/11 06:09:24;;;;;;;130.38;117.30;;;6.40;54.50;;;;;;4957629;28;20597;-74
2022/03/11 06:11:53;;;;;;;126.95;114.10;;;6.50;55.10;;;;;;4957228;28;20138;-74
2022/03/11 06:14:23;;;;;;;126.38;113.07;;;6.50;54.70;;;;;;4974887;28;20516;-74
2022/03/11 06:16:50;;;;;;;129.35;116.38;;;6.50;54.50;;;;;;4957315;28;20082;-74
2022/03/11 06:19:17;;;;;;;126.55;114.05;;;6.40;54.40;;;;;;4956874;28;20059;-74
2022/03/11 06:21:44;;;;;;;128.10;115.05;;;6.30;54.70;;;;;;4957271;28;20055;-74
2022/03/11 06:24:12;;;;;;;132.38;119.35;;;6.30;55.10;;;;;;4973213;28;20146;-74
2022/03/11 06:26:41;;;;;;;130.15;117.10;;;6.30;55.10;;;;;;4974809;28;20047;-74
2022/03/11 06:29:10;;;;;;;127.50;114.90;;;6.30;55.30;;;;;;4974717;28;20059;-74
2022/03/11 06:31:37;;;;;;;130.00;117.00;;;6.40;55.70;;;;;;4957307;28;20089;-74
2022/03/11 06:34:04;;;;;;;127.80;115.10;;;6.40;55.50;;;;;;4973134;28;20055;-74
2022/03/11 06:36:31;;;;;;;129.23;116.47;;;6.50;55.90;;;;;;4956559;28;20051;-74
2022/03/11 06:38:58;;;;;;;130.60;117.55;;;6.40;55.00;;;;;;4956837;28;20051;-74
2022/03/11 06:41:25;;;;;;;132.30;119.13;;;6.30;54.90;;;;;;4957033;28;20051;-74
2022/03/11 06:43:54;;;;;;;131.13;118.13;;;6.30;55.30;;;;;;4978436;28;20142;-75
2022/03/11 06:46:21;;;;;;;131.57;117.85;;;6.30;55.40;;;;;;4975752;28;20134;-74
2022/03/11 06:48:48;;;;;;;130.82;118.03;;;6.20;55.70;;;;;;4990088;28;20066;-74
2022/03/11 06:51:17;;;;;;;129.55;116.75;;;6.20;55.40;;;;;;4993635;28;20059;-74
2022/03/11 06:53:44;;;;;;;131.43;118.28;;;6.10;55.40;;;;;;4979248;28;20055;-74
2022/03/11 06:56:11;;;;;;;130.93;117.85;;;6.10;55.80;;;;;;4979598;28;20521;-75
2022/03/11 06:58:38;;;;;;;130.57;117.03;;;6.20;56.10;;;;;;4978921;28;20047;-75
2022/03/11 07:01:07;;;;;;;130.02;117.20;;;6.20;56.20;;;;;;4994085;28;20061;-75
2022/03/11 07:03:34;;;;;;;129.55;116.55;;;6.20;56.20;;;;;;4996703;28;20050;-75
2022/03/11 07:06:01;;;;;;;130.80;117.85;;;6.30;56.40;;;;;;4996737;28;20051;-74
2022/03/11 07:08:29;;;;;;;131.00;117.95;;;6.40;56.40;;;;;;4996701;28;20059;-74
2022/03/11 07:10:56;;;;;;;132.40;119.30;;;6.40;56.10;;;;;;4979004;28;20043;-75
2022/03/11 07:13:23;;;;;;;131.13;118.32;;;6.40;56.30;;;;;;4978436;28;20071;-74
2022/03/11 07:15:50;;;;;;;130.80;117.85;;;6.40;56.60;;;;;;4995397;28;20206;-74
2022/03/11 07:18:19;;;;;;;130.80;117.53;;;6.40;56.30;;;;;;4978198;28;20054;-74
2022/03/11 07:20:47;;;;;;;130.63;117.53;;;6.40;56.20;;;;;;4994034;28;20057;-74
2022/03/11 07:23:14;;;;;;;130.23;117.22;;;6.40;56.50;;;;;;4978168;28;20051;-74
2022/03/11 07:25:41;;;;;;;130.95;117.78;;;6.40;56.40;;;;;;4994897;28;20181;-74
2022/03/11 07:28:11;;;;;;;131.68;118.45;;;6.50;56.70;;;;;;4976415;28;20063;-75
2022/03/11 07:30:38;;;;;;;131.18;118.25;;;6.50;56.40;;;;;;4974024;28;20111;-74
2022/03/11 07:33:06;;;;;;;129.43;116.47;;;6.50;56.40;;;;;;4995178;28;20055;-74
2022/03/11 07:35:34;;;;;;;130.35;117.57;;;6.40;56.20;;;;;;4994975;28;20074;-74
2022/03/11 07:38:02;;;;;;;130.45;117.50;;;6.40;56.70;;;;;;4977602;28;20078;-74
2022/03/11 07:40:29;;;;;;;128.77;115.68;;;6.40;56.60;;;;;;4994463;28;20122;-75
2022/03/11 07:42:56;;;;;;;128.82;115.93;;;6.40;56.80;;;;;;4994535;28;20508;-75
2022/03/11 07:45:23;;;;;;;130.77;117.85;;;6.50;57.50;;;;;;4994510;28;20137;-75
2022/03/11 07:47:50;;;;;;;130.73;117.72;;;6.50;57.60;;;;;;4995991;28;20062;-76
2022/03/11 07:50:17;;;;;;;;;;;6.50;56.80;;;;;;4996596;28;20054;-75
2022/03/11 07:52:45;;;;;;;129.50;116.68;;;6.60;57.70;;;;;;4996110;28;20661;-75
2022/03/11 07:55:12;;;;;;;128.35;115.13;;;6.70;57.60;;;;;;4995625;28;20059;-75
2022/03/11 07:57:40;;;;;;;130.25;117.15;;;6.70;57.30;;;;;;4974189;28;20129;-75
2022/03/11 08:00:09;;;;;;;129.80;115.85;;;6.80;57.40;;;;;;4901016;28;20048;-75
2022/03/11 08:02:42;;;;;;;127.35;113.85;;;6.80;57.40;;;;;;4978353;28;20394;-75
2022/03/11 08:05:14;;;;;;;126.78;113.63;;;6.90;57.00;;;;;;4969803;28;20061;-75
2022/03/11 08:07:46;;;;;;;130.73;115.38;;;6.80;56.40;;;;;;4973974;28;20051;-76
2022/03/11 08:10:14;;;;;;;128.68;115.72;;;6.80;56.60;;;;;;4973716;28;20485;-75
2022/03/11 08:12:41;;;;;;;127.22;114.38;;;6.80;56.50;;;;;;4958696;28;20047;-75
2022/03/11 08:15:11;;;;;;;128.88;114.30;;;6.80;57.20;;;;;;4968964;28;20498;-75
2022/03/11 08:17:40;;;;;;;148.32;113.60;;;6.80;56.70;;;;;;4980943;28;20074;-76
2022/03/11 08:20:08;;;;;;;156.77;117.32;;;6.90;57.70;;;;;;4969334;28;20062;-75
2022/03/11 08:22:35;;;;;;;125.72;112.93;;;7.00;57.60;;;;;;4963128;28;20043;-75
2022/03/11 08:25:09;;;;;;;127.32;114.30;;;7.00;56.90;;;;;;4962811;28;20824;-76
2022/03/11 08:27:37;;;;;;;132.30;113.93;;;7.10;57.60;;;;;;4962378;28;20051;-74
2022/03/11 08:30:06;;;;;;;126.70;113.88;;;7.10;56.90;;;;;;4958328;28;20055;-75
2022/03/11 08:32:33;;;;;;;126.70;113.22;;;7.10;56.60;;;;;;4976107;28;20058;-75
2022/03/11 08:35:00;;;;;;;128.57;115.22;;;7.20;56.40;;;;;;4974736;28;20059;-75
2022/03/11 08:37:27;;;;;;;126.70;113.97;;;7.20;56.30;;;;;;4957504;28;20049;-75
2022/03/11 08:39:55;;;;;;;126.50;113.57;;;7.10;56.60;;;;;;4958366;28;20060;-75
2022/03/11 08:42:24;;;;;;;128.32;115.50;;;7.20;56.00;;;;;;4975942;28;20055;-78
2022/03/11 08:44:51;;;;;;;128.65;115.70;;;7.20;56.10;;;;;;4961407;28;20150;-76
2022/03/11 08:47:18;;;;;;;126.97;113.90;;;7.20;55.80;;;;;;4981502;28;20055;-76
2022/03/11 08:49:45;;;;;;;126.50;113.95;;;7.20;56.40;;;;;;4961095;28;20044;-76
2022/03/11 08:52:12;;;;;;;130.68;117.57;;;7.20;56.00;;;;;;4961001;28;20058;-76
2022/03/11 08:54:39;;;;;;;127.43;114.43;;;7.30;56.30;;;;;;4966266;28;20139;-75
2022/03/11 08:57:06;;;;;;;;;;;7.30;56.60;;;;;;4988156;28;20264;-75
2022/03/11 08:59:34;;;;;;;126.60;113.70;;;7.40;59.00;;;;;;4992032;28;20380;-75
2022/03/11 09:02:02;;;;;;;128.75;115.43;;;7.50;57.40;;;;;;4982960;28;20043;-75
2022/03/11 09:04:30;;;;;;;127.68;114.55;;;7.60;57.50;;;;;;4958407;28;20059;-75
2022/03/11 09:06:57;;;;;;;130.80;116.10;;;7.70;57.20;;;;;;4960557;28;20510;-74
2022/03/11 09:09:24;;;;;;;128.93;115.78;;;7.80;56.90;;;;;;4959210;28;20528;-75
2022/03/11 09:11:51;;;;;;;129.93;115.85;;;7.80;55.90;;;;;;4975462;28;20051;-75
2022/03/11 09:14:18;;;;;;;131.07;116.38;;;7.80;55.80;;;;;;4957104;28;20142;-75
2022/03/11 09:16:47;;;;;;;128.85;115.28;;;7.90;55.90;;;;;;4975584;28;20059;-75
2022/03/11 09:19:14;;;;;;;131.73;117.70;;;7.90;55.90;;;;;;4958481;28;20053;-76
2022/03/11 09:21:42;;;;;;;137.88;118.10;;;8.00;55.80;;;;;;4975891;28;20056;-76
2022/03/11 09:24:09;;;;;;;136.82;118.97;;;8.10;56.30;;;;;;4958454;28;20059;-75
2022/03/11 09:26:36;;;;;;;172.70;117.20;;;8.10;54.90;;;;;;4958328;28;20127;-76
2022/03/11 09:29:04;;;;;;;134.75;118.32;;;8.10;54.60;;;;;;4958526;28;20062;-76
2022/03/11 09:31:31;;;;;;;131.77;118.20;;;8.20;54.30;;;;;;4949534;28;20534;-76
2022/03/11 09:34:01;;;;;;;131.68;118.80;;;8.20;53.90;;;;;;4975100;28;20130;-75
2022/03/11 09:36:28;;;;;;;132.77;118.78;;;8.20;54.40;;;;;;4957746;28;20051;-76
2022/03/11 09:38:55;;;;;;;157.45;121.65;;;8.20;54.60;;;;;;4957922;28;20051;-76
2022/03/11 09:41:24;;;;;;;133.43;119.40;;;8.30;54.90;;;;;;4975450;28;20058;-76
2022/03/11 09:43:51;;;;;;;144.52;117.28;;;8.40;56.40;;;;;;4975466;28;20061;-76
2022/03/11 09:46:19;;;;;;;129.40;115.57;;;8.50;56.10;;;;;;4973359;28;20102;-75
2022/03/11 09:48:46;;;;;;;131.00;117.15;;;8.60;55.20;;;;;;4957238;28;20055;-75
2022/03/11 09:51:15;;;;;;;128.88;115.68;;;8.80;56.10;;;;;;4976750;28;20055;-75
2022/03/11 09:53:43;;;;;;;133.50;119.53;;;8.90;54.70;;;;;;4955850;28;20498;-75
2022/03/11 09:56:10;;;;;;;152.02;116.38;;;8.90;53.50;;;;;;4974484;28;20047;-76
2022/03/11 09:58:37;;;;;;;160.52;119.93;;;8.90;53.50;;;;;;4979807;28;20516;-76
2022/03/11 10:01:06;;;;;;;128.68;114.63;;;9.00;53.60;;;;;;4959509;28;20085;-75
2022/03/11 10:03:33;;;;;;;133.63;115.28;;;9.00;53.60;;;;;;4954163;28;20059;-76
2022/03/11 10:06:01;;;;;;;147.18;116.28;;;9.00;53.80;;;;;;4965847;28;20989;-74
2022/03/11 10:08:35;;;;;;;128.32;115.22;;;9.10;53.60;;;;;;4956230;28;20143;-74
2022/03/11 10:11:23;;;;;;;128.13;115.18;;;9.10;52.20;;;;;;4971762;28;20124;-74
2022/03/11 10:13:54;;;;;;;128.93;116.22;;;9.20;52.60;;;;;;4973539;28;20137;-75
2022/03/11 10:16:22;;;;;;;127.68;114.93;;;9.20;52.50;;;;;;4956980;28;20130;-74
2022/03/11 10:18:57;;;;;;;130.60;117.28;;;9.20;53.50;;;;;;4956308;28;20051;-74
2022/03/11 10:21:29;;;;;;;130.57;115.63;;;9.30;53.10;;;;;;4958943;28;20046;-74
2022/03/11 10:23:58;;;;;;;129.63;116.80;;;9.40;52.70;;;;;;4982299;28;20330;-74
2022/03/11 10:26:36;;;;;;;141.45;116.88;;;9.40;53.00;;;;;;4956801;28;20065;-75
2022/03/11 10:29:06;;;;;;;132.63;118.93;;;9.50;52.10;;;;;;4974149;28;20055;-75
2022/03/11 10:31:35;;;;;;;197.57;120.57;;;9.50;51.60;;;;;;4973173;28;20056;-75
2022/03/11 10:34:13;;;;;;;132.20;116.70;;;9.60;52.10;;;;;;4974769;28;20544;-75
2022/03/11 10:36:47;;;;;;;131.30;114.80;;;9.70;52.60;;;;;;4974135;28;20055;-75
2022/03/11 10:39:16;;;;;;;126.93;114.20;;;9.80;53.10;;;;;;4956846;28;20051;-75
2022/03/11 10:41:43;;;;;;;128.35;115.43;;;9.90;52.50;;;;;;4957103;28;20048;-75
2022/03/11 10:44:12;;;;;;;129.13;115.78;;;9.90;52.40;;;;;;4957054;28;20051;-75
2022/03/11 10:46:40;;;;;;;130.15;116.90;;;10.00;52.40;;;;;;4974322;28;20537;-75
2022/03/11 10:49:07;;;;;;;127.53;114.82;;;10.10;52.50;;;;;;4974371;28;20545;-75
2022/03/11 10:51:37;;;;;;;128.88;116.10;;;10.20;52.40;;;;;;4956939;28;20059;-75
2022/03/11 10:54:06;;;;;;;129.45;114.70;;;10.30;52.40;;;;;;4974568;28;20054;-75
2022/03/11 10:56:36;;;;;;;131.40;115.82;;;10.40;52.40;;;;;;4974471;28;20086;-75
2022/03/11 10:59:06;;;;;;;127.18;113.57;;;10.50;52.00;;;;;;4957872;28;20549;-75
2022/03/11 11:01:35;;;;;;;126.75;114.30;;;10.60;49.40;;;;;;4959604;28;20142;-75
2022/03/11 11:04:04;;;;;;;126.45;113.40;;;10.60;49.30;;;;;;4956764;28;20051;-75
2022/03/11 11:06:31;;;;;;;127.82;115.32;;;10.70;48.50;;;;;;4974390;28;20055;-75
2022/03/11 11:08:58;;;;;;;125.70;112.22;;;10.70;48.60;;;;;;4973603;28;20828;-75
2022/03/11 11:11:26;;;;;;;265.08;122.65;;;10.80;47.80;;;;;;4976794;28;20054;-75
2022/03/11 11:13:55;;;;;;;129.18;116.00;;;10.80;47.40;;;;;;4984290;28;20051;-75
2022/03/11 11:16:27;;;;;;;126.47;114.22;;;10.90;47.90;;;;;;4982569;28;20058;-75
2022/03/11 11:18:58;;;;;;;128.18;114.82;;;10.90;48.20;;;;;;4963662;28;20560;-75
2022/03/11 11:21:26;;;;;;;129.20;115.75;;;11.00;47.20;;;;;;4966559;28;20527;-76
2022/03/11 11:23:55;;;;;;;127.07;114.28;;;11.00;47.40;;;;;;4984599;28;20544;-76
2022/03/11 11:26:23;;;;;;;129.85;115.47;;;11.10;49.00;;;;;;4970039;28;20046;-75
2022/03/11 11:28:52;;;;;;;126.95;114.18;;;11.30;50.30;;;;;;4967417;28;20051;-75
2022/03/11 11:31:21;;;;;;;127.43;114.43;;;11.40;49.50;;;;;;4977737;28;20055;-75
2022/03/11 11:33:50;;;;;;;127.13;114.30;;;11.60;48.90;;;;;;4983931;28;20580;-74
2022/03/11 11:36:34;;;;;;;126.28;114.10;;;11.70;49.10;;;;;;4962606;28;20050;-75
2022/03/11 11:39:03;;;;;;;130.15;116.90;;;11.80;48.80;;;;;;4987933;28;20882;-77
2022/03/11 11:41:31;;;;;;;129.13;116.15;;;11.90;48.20;;;;;;4965050;28;20046;-75
2022/03/11 11:44:00;;;;;;;126.70;113.93;;;11.90;48.90;;;;;;4962171;28;20055;-77
2022/03/11 11:46:30;;;;;;;128.30;115.90;;;12.00;47.90;;;;;;4978634;28;20567;-77
2022/03/11 11:49:00;;;;;;;126.35;114.40;;;12.10;47.30;;;;;;4989872;28;20059;-78
2022/03/11 11:51:58;;;;;;;125.10;113.00;;;12.20;48.20;;;;;;4977462;28;20082;-78
2022/03/11 11:54:45;;;;;;;127.53;114.68;;;12.30;46.70;;;;;;4958275;28;20051;-78
2022/03/11 11:57:35;;;;;;;129.32;116.70;;;12.30;46.90;;;;;;4987921;28;20059;-77
2022/03/11 12:00:08;;;;;;;126.80;114.53;;;12.40;47.30;;;;;;4957883;28;20513;-80
2022/03/11 12:02:43;;;;;;;128.40;116.10;;;12.40;46.30;;;;;;4973391;28;20506;-78
2022/03/11 12:05:39;;;;;;;127.63;115.32;;;12.50;46.50;;;;;;4979158;28;20066;-79
2022/03/11 12:08:06;;;;;;;126.00;114.10;;;12.60;45.60;;;;;;4972356;28;20058;-79
2022/03/11 12:10:34;;;;;;;131.98;115.20;;;12.60;45.40;;;;;;4983380;28;20079;-79
2022/03/11 12:13:04;;;;;;;127.40;115.53;;;12.70;45.90;;;;;;4959280;28;20093;-79
2022/03/11 12:15:39;;;;;;;127.63;115.28;;;12.80;47.10;;;;;;4975561;28;20054;-79
2022/03/11 12:18:44;;;;;;;127.40;115.50;;;12.80;47.10;;;;;;4957925;28;20541;-80
2022/03/11 12:21:25;;;;;;;127.47;115.45;;;12.90;47.20;;;;;;4969042;28;20557;-79